This is the latest recevied weather packets stored in our database for station/object OK4PZ-4. If no packets are shown the sender has not sent any weather packets the latest 1 day(s).
| Time | Temp. | Humidity | Pressure | Rain* | Wind** | Luminosity | Snow |
|---|---|---|---|---|---|---|---|
| 1778065739 | 30.56° C | 30% | 1003.3 hPa | 0 mm | - | - | - |
| 1778061780 | 28.33° C | 38% | 1004.2 hPa | 0 mm | - | - | - |
| 1778057821 | 25.56° C | 47% | 1004.7 hPa | 0 mm | - | - | - |
| 1778050135 | 19.44° C | 100% | 1005 hPa | 0 mm | - | - | - |
| 1778046176 | 16.11° C | 100% | 1005.5 hPa | 0 mm | - | - | - |
| 1778042258 | 14.44° C | 100% | 1005.1 hPa | 0 mm | - | - | - |
| 1778042025 | 14.44° C | 100% | 1005.2 hPa | 0 mm | - | - | - |
| 1778038339 | 13.89° C | 100% | 1004.9 hPa | 0 mm | - | - | - |
| 1778038106 | 13.89° C | 100% | 1004.9 hPa | 0 mm | - | - | - |
| 1778034420 | 14.44° C | 100% | 1004.9 hPa | 0 mm | - | - | - |
| 1778034187 | 14.44° C | 100% | 1004.8 hPa | 0 mm | - | - | - |
| 1778030510 | 14.44° C | 100% | 1004.9 hPa | 0 mm | - | - | - |
| 1778030277 | 14.44° C | 100% | 1005.1 hPa | 0 mm | - | - | - |
| 1778030268 | 14.44° C | 100% | 1004.9 hPa | 0 mm | - | - | - |
| 1778026395 | 15° C | 100% | 1005 hPa | 0 mm | - | - | - |
| 1778022436 | 15° C | 100% | 1004.6 hPa | 0 mm | - | - | - |
| 1778014872 | 17.22° C | 78% | 1004 hPa | 0 mm | - | - | - |
| 1778010913 | 18.89° C | 70% | 1002 hPa | 0 mm | - | - | - |
| 1778006954 | 20° C | 63% | 1000.7 hPa | 7.37 mm | - | - | - |
| 1777991350 | 25° C | 71% | 1002.1 hPa | 7.37 mm | - | - | - |
| 1777991117 | 24.44° C | 74% | 1002 hPa | 7.37 mm | - | - | - |
* Rain since midnight (hover to see other rain measurements)
** Current wind speed in m/s (hover to see current wind gust speed)